sensor_id;sensor_type;location;lat;lon;timestamp;pressure;altitude;pressure_sealevel;temperature;humidity
55263;BME280;41125;48.752;9.168;2023-04-01T00:00:24;95553.28;;;7.05;86.80
55263;BME280;41125;48.752;9.168;2023-04-01T00:00:57;95554.38;;;7.04;86.93
55263;BME280;41125;48.752;9.168;2023-04-01T00:01:29;95555.97;;;7.05;86.94
55263;BME280;41125;48.752;9.168;2023-04-01T00:02:01;95544.47;;;7.13;86.21
55263;BME280;41125;48.752;9.168;2023-04-01T00:02:39;95554.16;;;7.14;86.21
55263;BME280;41125;48.752;9.168;2023-04-01T00:03:11;95548.16;;;7.17;86.48
55263;BME280;41125;48.752;9.168;2023-04-01T00:03:43;95547.56;;;7.20;85.82
55263;BME280;41125;48.752;9.168;2023-04-01T00:04:14;95538.16;;;7.18;85.92
55263;BME280;41125;48.752;9.168;2023-04-01T00:04:46;95543.38;;;7.14;86.03
55263;BME280;41125;48.752;9.168;2023-04-01T00:05:18;95547.97;;;7.14;86.30
55263;BME280;41125;48.752;9.168;2023-04-01T00:05:50;95551.56;;;7.09;86.31
55263;BME280;41125;48.752;9.168;2023-04-01T00:06:21;95547.56;;;7.06;86.89
55263;BME280;41125;48.752;9.168;2023-04-01T00:06:52;95546.78;;;7.06;86.82
55263;BME280;41125;48.752;9.168;2023-04-01T00:07:24;95546.78;;;7.06;87.38
55263;BME280;41125;48.752;9.168;2023-04-01T00:07:55;95553.06;;;7.15;86.82
55263;BME280;41125;48.752;9.168;2023-04-01T00:08:32;95553.56;;;7.17;86.85
55263;BME280;41125;48.752;9.168;2023-04-01T00:09:04;95558.16;;;7.17;86.69
55263;BME280;41125;48.752;9.168;2023-04-01T00:09:36;95554.16;;;7.14;86.89
55263;BME280;41125;48.752;9.168;2023-04-01T00:10:09;95555.66;;;7.20;86.71
55263;BME280;41125;48.752;9.168;2023-04-01T00:10:41;95550.25;;;7.20;86.50
55263;BME280;41125;48.752;9.168;2023-04-01T00:11:13;95558.94;;;7.17;86.90
55263;BME280;41125;48.752;9.168;2023-04-01T00:11:44;95559.06;;;7.12;87.14
55263;BME280;41125;48.752;9.168;2023-04-01T00:12:16;95554.56;;;7.07;87.71
55263;BME280;41125;48.752;9.168;2023-04-01T00:12:47;95561.38;;;7.05;88.06
55263;BME280;41125;48.752;9.168;2023-04-01T00:13:19;95552.16;;;7.06;88.27
55263;BME280;41125;48.752;9.168;2023-04-01T00:13:50;95556.47;;;7.07;88.36
55263;BME280;41125;48.752;9.168;2023-04-01T00:14:21;95552.16;;;7.06;88.23
55263;BME280;41125;48.752;9.168;2023-04-01T00:14:53;95550.56;;;7.05;88.62
55263;BME280;41125;48.752;9.168;2023-04-01T00:15:25;95552.56;;;7.13;88.00
55263;BME280;41125;48.752;9.168;2023-04-01T00:15:57;95548.28;;;7.12;87.30
55263;BME280;41125;48.752;9.168;2023-04-01T00:16:28;95560.16;;;7.11;87.50
55263;BME280;41125;48.752;9.168;2023-04-01T00:16:59;95542.97;;;7.07;87.60
55263;BME280;41125;48.752;9.168;2023-04-01T00:17:34;95553.78;;;7.07;87.44
55263;BME280;41125;48.752;9.168;2023-04-01T00:18:05;95561.16;;;7.15;87.15
55263;BME280;41125;48.752;9.168;2023-04-01T00:18:37;95556.75;;;7.19;86.95
55263;BME280;41125;48.752;9.168;2023-04-01T00:19:08;95548.66;;;7.19;87.09
55263;BME280;41125;48.752;9.168;2023-04-01T00:19:41;95551.34;;;7.19;86.94
55263;BME280;41125;48.752;9.168;2023-04-01T00:20:14;95541.16;;;7.16;86.93
55263;BME280;41125;48.752;9.168;2023-04-01T00:20:46;95549.87;;;7.13;87.00
55263;BME280;41125;48.752;9.168;2023-04-01T00:21:19;95548.56;;;7.11;87.03
55263;BME280;41125;48.752;9.168;2023-04-01T00:21:51;95554.25;;;7.09;87.16
55263;BME280;41125;48.752;9.168;2023-04-01T00:22:26;95547.78;;;7.10;87.35
55263;BME280;41125;48.752;9.168;2023-04-01T00:22:58;95540.78;;;7.09;87.23
55263;BME280;41125;48.752;9.168;2023-04-01T00:23:30;95554.16;;;7.14;87.09
55263;BME280;41125;48.752;9.168;2023-04-01T00:24:01;95552.34;;;7.23;86.75
55263;BME280;41125;48.752;9.168;2023-04-01T00:24:32;95550.75;;;7.22;86.51
55263;BME280;41125;48.752;9.168;2023-04-01T00:25:08;95548.06;;;7.22;85.96
55263;BME280;41125;48.752;9.168;2023-04-01T00:25:39;95547.06;;;7.18;87.10
55263;BME280;41125;48.752;9.168;2023-04-01T00:26:10;95539.88;;;7.14;87.22
55263;BME280;41125;48.752;9.168;2023-04-01T00:26:42;95542.37;;;7.10;87.39
55263;BME280;41125;48.752;9.168;2023-04-01T00:27:15;95539.50;;;7.06;87.63
55263;BME280;41125;48.752;9.168;2023-04-01T00:27:46;95545.19;;;7.05;87.50
55263;BME280;41125;48.752;9.168;2023-04-01T00:28:20;95555.38;;;7.08;87.25
55263;BME280;41125;48.752;9.168;2023-04-01T00:28:53;95555.38;;;7.08;87.37
55263;BME280;41125;48.752;9.168;2023-04-01T00:29:26;95546.78;;;7.06;88.02
55263;BME280;41125;48.752;9.168;2023-04-01T00:30:00;95551.69;;;7.04;87.80
55263;BME280;41125;48.752;9.168;2023-04-01T00:30:31;95548.97;;;7.04;87.54
55263;BME280;41125;48.752;9.168;2023-04-01T00:31:07;95545.78;;;7.02;87.76
55263;BME280;41125;48.752;9.168;2023-04-01T00:31:41;95543.09;;;7.02;87.41
55263;BME280;41125;48.752;9.168;2023-04-01T00:32:12;95543.97;;;7.11;87.37
55263;BME280;41125;48.752;9.168;2023-04-01T00:32:44;95542.37;;;7.10;86.86
55263;BME280;41125;48.752;9.168;2023-04-01T00:33:16;95549.19;;;7.07;87.10
55263;BME280;41125;48.752;9.168;2023-04-01T00:33:48;95546.78;;;7.06;87.20
55263;BME280;41125;48.752;9.168;2023-04-01T00:34:21;95553.78;;;7.07;87.22
55263;BME280;41125;48.752;9.168;2023-04-01T00:34:52;95548.69;;;7.05;87.07
55263;BME280;41125;48.752;9.168;2023-04-01T00:35:24;95541.38;;;7.06;87.54
55263;BME280;41125;48.752;9.168;2023-04-01T00:36:06;95549.78;;;7.04;87.36
55263;BME280;41125;48.752;9.168;2023-04-01T00:36:37;95550.56;;;7.05;87.64
55263;BME280;41125;48.752;9.168;2023-04-01T00:37:09;95548.38;;;7.07;87.22
55263;BME280;41125;48.752;9.168;2023-04-01T00:37:41;95545.06;;;7.10;87.22
55263;BME280;41125;48.752;9.168;2023-04-01T00:38:15;95555.75;;;7.15;86.64
55263;BME280;41125;48.752;9.168;2023-04-01T00:38:48;95550.56;;;7.19;86.72
55263;BME280;41125;48.752;9.168;2023-04-01T00:39:20;95552.16;;;7.20;86.33
55263;BME280;41125;48.752;9.168;2023-04-01T00:39:52;95551.16;;;7.16;86.49
55263;BME280;41125;48.752;9.168;2023-04-01T00:40:36;95553.16;;;7.10;87.06
55263;BME280;41125;48.752;9.168;2023-04-01T00:41:08;95552.97;;;7.06;87.08
55263;BME280;41125;48.752;9.168;2023-04-01T00:41:45;95553.16;;;7.10;87.29
55263;BME280;41125;48.752;9.168;2023-04-01T00:42:16;95558.75;;;7.14;87.13
55263;BME280;41125;48.752;9.168;2023-04-01T00:42:48;95556.84;;;7.14;87.23
55263;BME280;41125;48.752;9.168;2023-04-01T00:43:20;95556.34;;;7.12;87.01
55263;BME280;41125;48.752;9.168;2023-04-01T00:43:51;95558.56;;;7.10;87.25
55263;BME280;41125;48.752;9.168;2023-04-01T00:44:25;95563.16;;;7.10;87.06
55263;BME280;41125;48.752;9.168;2023-04-01T00:44:57;95558.75;;;7.14;86.93
55263;BME280;41125;48.752;9.168;2023-04-01T00:45:35;95559.56;;;7.14;87.05
55263;BME280;41125;48.752;9.168;2023-04-01T00:46:06;95559.56;;;7.14;87.12
55263;BME280;41125;48.752;9.168;2023-04-01T00:46:37;95557.97;;;7.13;87.21
55263;BME280;41125;48.752;9.168;2023-04-01T00:47:09;95559.06;;;7.12;87.23
55263;BME280;41125;48.752;9.168;2023-04-01T00:47:40;95564.25;;;7.09;87.29
55263;BME280;41125;48.752;9.168;2023-04-01T00:48:21;95561.38;;;7.05;87.35
55263;BME280;41125;48.752;9.168;2023-04-01T00:48:55;95565.16;;;7.04;87.50
55263;BME280;41125;48.752;9.168;2023-04-01T00:49:30;95559.75;;;7.04;87.90
55263;BME280;41125;48.752;9.168;2023-04-01T00:50:04;95558.16;;;7.03;88.00
55263;BME280;41125;48.752;9.168;2023-04-01T00:50:37;95553.56;;;7.03;87.90
55263;BME280;41125;48.752;9.168;2023-04-01T00:51:23;95562.34;;;7.09;88.09
55263;BME280;41125;48.752;9.168;2023-04-01T00:51:57;95559.66;;;7.09;88.14
55263;BME280;41125;48.752;9.168;2023-04-01T00:52:31;95561.16;;;7.15;87.74
55263;BME280;41125;48.752;9.168;2023-04-01T00:53:03;95562.16;;;7.19;88.11
55263;BME280;41125;48.752;9.168;2023-04-01T00:53:40;95555.66;;;7.20;87.96
55263;BME280;41125;48.752;9.168;2023-04-01T00:54:14;95559.75;;;7.18;88.20
55263;BME280;41125;48.752;9.168;2023-04-01T00:54:49;95560.66;;;7.13;88.08
55263;BME280;41125;48.752;9.168;2023-04-01T00:55:22;95566.53;;;7.15;88.39
55263;BME280;41125;48.752;9.168;2023-04-01T00:56:05;95561.53;;;7.22;87.77
55263;BME280;41125;48.752;9.168;2023-04-01T00:57:08;95567.94;;;7.26;87.71
55263;BME280;41125;48.752;9.168;2023-04-01T00:57:42;95570.13;;;7.24;87.49
55263;BME280;41125;48.752;9.168;2023-04-01T00:58:19;95557.25;;;7.21;88.09
55263;BME280;41125;48.752;9.168;2023-04-01T00:58:59;95561.03;;;7.20;87.82
55263;BME280;41125;48.752;9.168;2023-04-01T00:59:39;95566.75;;;7.19;88.00
55263;BME280;41125;48.752;9.168;2023-04-01T01:00:13;95564.34;;;7.17;88.11
55263;BME280;41125;48.752;9.168;2023-04-01T01:00:47;95565.75;;;7.15;87.99
55263;BME280;41125;48.752;9.168;2023-04-01T01:01:21;95566.06;;;7.13;88.62
55263;BME280;41125;48.752;9.168;2023-04-01T01:01:54;95567.34;;;7.16;88.41
55263;BME280;41125;48.752;9.168;2023-04-01T01:02:25;95574.16;;;7.13;88.71
55263;BME280;41125;48.752;9.168;2023-04-01T01:02:56;95570.94;;;7.11;89.25
55263;BME280;41125;48.752;9.168;2023-04-01T01:03:28;95573.16;;;7.09;89.25
55263;BME280;41125;48.752;9.168;2023-04-01T01:04:00;95572.53;;;7.12;89.05
55263;BME280;41125;48.752;9.168;2023-04-01T01:04:34;95569.34;;;7.10;89.03
55263;BME280;41125;48.752;9.168;2023-04-01T01:05:06;95570.44;;;7.09;88.95
55263;BME280;41125;48.752;9.168;2023-04-01T01:07:27;95574.75;;;7.10;89.56
55263;BME280;41125;48.752;9.168;2023-04-01T01:08:35;95568.56;;;7.10;89.18
55263;BME280;41125;48.752;9.168;2023-04-01T01:09:31;95568.34;;;7.06;90.33
55263;BME280;41125;48.752;9.168;2023-04-01T01:10:26;95562.16;;;7.05;90.27
55263;BME280;41125;48.752;9.168;2023-04-01T01:11:01;95555.16;;;7.04;90.89
55263;BME280;41125;48.752;9.168;2023-04-01T01:11:45;95557.37;;;7.02;90.76
55263;BME280;41125;48.752;9.168;2023-04-01T01:12:46;95553.38;;;7.00;90.65
55263;BME280;41125;48.752;9.168;2023-04-01T01:13:36;95557.78;;;6.96;91.63
55263;BME280;41125;48.752;9.168;2023-04-01T01:14:28;95557.78;;;6.96;91.49
55263;BME280;41125;48.752;9.168;2023-04-01T01:15:39;95554.88;;;7.06;90.73
55263;BME280;41125;48.752;9.168;2023-04-01T01:16:24;95545.56;;;7.12;90.33
55263;BME280;41125;48.752;9.168;2023-04-01T01:17:32;95547.16;;;7.13;90.25
55263;BME280;41125;48.752;9.168;2023-04-01T01:25:16;95555.78;;;7.01;90.58
55263;BME280;41125;48.752;9.168;2023-04-01T01:27:11;95553.78;;;7.07;90.69
55263;BME280;41125;48.752;9.168;2023-04-01T01:27:52;95553.28;;;7.05;90.50
55263;BME280;41125;48.752;9.168;2023-04-01T01:28:51;95555.38;;;7.08;89.80
55263;BME280;41125;48.752;9.168;2023-04-01T01:29:47;95565.97;;;7.04;90.16
55263;BME280;41125;48.752;9.168;2023-04-01T01:30:42;95560.56;;;7.04;90.38
55263;BME280;41125;48.752;9.168;2023-04-01T01:31:30;95558.66;;;7.05;90.38
55263;BME280;41125;48.752;9.168;2023-04-01T01:32:31;95560.75;;;7.08;90.04
55263;BME280;41125;48.752;9.168;2023-04-01T01:33:29;95552.78;;;7.03;90.29
55263;BME280;41125;48.752;9.168;2023-04-01T01:34:24;95552.38;;;7.10;89.81
55263;BME280;41125;48.752;9.168;2023-04-01T01:35:50;95553.78;;;7.07;90.42
55263;BME280;41125;48.752;9.168;2023-04-01T01:36:28;95564.06;;;7.05;90.67
55263;BME280;41125;48.752;9.168;2023-04-01T01:37:05;95557.37;;;7.02;90.29
55263;BME280;41125;48.752;9.168;2023-04-01T01:37:40;95551.19;;;7.02;90.30
55263;BME280;41125;48.752;9.168;2023-04-01T01:38:16;95556.87;;;7.00;90.57
55263;BME280;41125;48.752;9.168;2023-04-01T01:38:51;95555.56;;;6.98;90.61
55263;BME280;41125;48.752;9.168;2023-04-01T01:39:26;95559.38;;;6.97;90.48
55263;BME280;41125;48.752;9.168;2023-04-01T01:40:03;95551.59;;;6.95;90.91
55263;BME280;41125;48.752;9.168;2023-04-01T01:40:36;95555.38;;;6.94;91.09
55263;BME280;41125;48.752;9.168;2023-04-01T01:41:12;95560.78;;;6.94;91.36
55263;BME280;41125;48.752;9.168;2023-04-01T01:41:46;95558.41;;;6.93;91.35
55263;BME280;41125;48.752;9.168;2023-04-01T01:42:21;95556.81;;;6.92;91.23
55263;BME280;41125;48.752;9.168;2023-04-01T01:42:59;95559.97;;;6.94;91.52
55263;BME280;41125;48.752;9.168;2023-04-01T01:43:37;95562.56;;;6.99;91.72
55263;BME280;41125;48.752;9.168;2023-04-01T01:44:11;95553.38;;;7.00;91.52
55263;BME280;41125;48.752;9.168;2023-04-01T01:44:45;95561.97;;;7.02;91.39
55263;BME280;41125;48.752;9.168;2023-04-01T01:45:20;95561.47;;;7.00;91.28
55263;BME280;41125;48.752;9.168;2023-04-01T01:45:56;95559.56;;;7.00;91.24
55263;BME280;41125;48.752;9.168;2023-04-01T01:46:30;95563.56;;;7.03;91.39
55263;BME280;41125;48.752;9.168;2023-04-01T01:47:02;95564.37;;;7.03;91.04
55263;BME280;41125;48.752;9.168;2023-04-01T01:47:37;95560.66;;;7.13;90.79
55263;BME280;41125;48.752;9.168;2023-04-01T01:48:10;95559.75;;;7.18;89.91
55263;BME280;41125;48.752;9.168;2023-04-01T01:48:42;95563.84;;;7.15;89.84
55263;BME280;41125;48.752;9.168;2023-04-01T01:49:16;95564.94;;;7.14;90.23
55263;BME280;41125;48.752;9.168;2023-04-01T01:49:48;95559.97;;;7.07;90.60
55263;BME280;41125;48.752;9.168;2023-04-01T01:50:22;95558.16;;;7.03;91.59
55263;BME280;41125;48.752;9.168;2023-04-01T01:50:55;95567.66;;;7.00;91.71
55263;BME280;41125;48.752;9.168;2023-04-01T01:51:27;95557.78;;;6.96;91.65
55263;BME280;41125;48.752;9.168;2023-04-01T01:51:59;95559.16;;;6.93;92.28
55263;BME280;41125;48.752;9.168;2023-04-01T01:52:30;95559.81;;;6.90;92.17
55263;BME280;41125;48.752;9.168;2023-04-01T01:53:07;95557.91;;;6.91;92.23
55263;BME280;41125;48.752;9.168;2023-04-01T01:53:43;95559.81;;;6.90;92.49
55263;BME280;41125;48.752;9.168;2023-04-01T01:54:16;95553.62;;;6.90;92.53
55263;BME280;41125;48.752;9.168;2023-04-01T01:54:53;95555.22;;;6.91;92.42
55263;BME280;41125;48.752;9.168;2023-04-01T01:55:36;95559.00;;;6.90;92.30
55263;BME280;41125;48.752;9.168;2023-04-01T01:56:11;95555.22;;;6.91;92.53
55263;BME280;41125;48.752;9.168;2023-04-01T01:56:50;95551.78;;;6.99;92.21
55263;BME280;41125;48.752;9.168;2023-04-01T01:57:30;95557.06;;;7.04;92.27
55263;BME280;41125;48.752;9.168;2023-04-01T01:59:07;95552.56;;;6.99;91.83
55263;BME280;41125;48.752;9.168;2023-04-01T01:59:41;95548.38;;;7.07;91.03
55263;BME280;41125;48.752;9.168;2023-04-01T02:00:15;95553.78;;;7.07;90.95
55263;BME280;41125;48.752;9.168;2023-04-01T02:00:55;95550.56;;;7.05;90.87
55263;BME280;41125;48.752;9.168;2023-04-01T02:01:29;95550.06;;;7.03;91.13
55263;BME280;41125;48.752;9.168;2023-04-01T02:02:03;95547.69;;;7.01;91.59
55263;BME280;41125;48.752;9.168;2023-04-01T02:02:43;95546.38;;;6.99;91.69
55263;BME280;41125;48.752;9.168;2023-04-01T02:03:15;95544.28;;;6.96;91.78
55263;BME280;41125;48.752;9.168;2023-04-01T02:03:48;95542.22;;;6.93;91.71
55263;BME280;41125;48.752;9.168;2023-04-01T02:04:22;95542.22;;;6.93;92.01
55263;BME280;41125;48.752;9.168;2023-04-01T02:04:54;95543.31;;;6.92;92.53
55263;BME280;41125;48.752;9.168;2023-04-01T02:05:28;95545.53;;;6.90;92.53
55263;BME280;41125;48.752;9.168;2023-04-01T02:06:04;95551.41;;;6.92;92.09
55263;BME280;41125;48.752;9.168;2023-04-01T02:06:42;95544.44;;;6.91;92.15
55263;BME280;41125;48.752;9.168;2023-04-01T02:07:22;95541.22;;;6.89;92.39
55263;BME280;41125;48.752;9.168;2023-04-01T02:08:14;95549.91;;;6.86;92.66
55263;BME280;41125;48.752;9.168;2023-04-01T02:08:54;95548.31;;;6.85;92.46
55263;BME280;41125;48.752;9.168;2023-04-01T02:09:27;95542.81;;;6.90;92.61
55263;BME280;41125;48.752;9.168;2023-04-01T02:10:00;95545.38;;;6.95;91.87
55263;BME280;41125;48.752;9.168;2023-04-01T02:10:35;95544.28;;;6.96;91.77
55263;BME280;41125;48.752;9.168;2023-04-01T02:11:11;95540.00;;;6.95;91.54
55263;BME280;41125;48.752;9.168;2023-04-01T02:11:51;95546.03;;;6.92;92.00
55263;BME280;41125;48.752;9.168;2023-04-01T02:12:24;95545.81;;;6.88;91.94
55263;BME280;41125;48.752;9.168;2023-04-01T02:13:00;95543.44;;;6.87;92.03
55263;BME280;41125;48.752;9.168;2023-04-01T02:13:46;95552.63;;;6.86;92.26
55263;BME280;41125;48.752;9.168;2023-04-01T02:14:41;95547.22;;;6.86;92.60
55263;BME280;41125;48.752;9.168;2023-04-01T02:15:15;95543.22;;;6.83;92.50
55263;BME280;41125;48.752;9.168;2023-04-01T02:15:48;95544.81;;;6.84;93.12
55263;BME280;41125;48.752;9.168;2023-04-01T02:16:42;95552.81;;;6.89;92.49
55263;BME280;41125;48.752;9.168;2023-04-01T02:17:21;95555.50;;;6.89;92.39
55263;BME280;41125;48.752;9.168;2023-04-01T02:17:54;95552.63;;;6.86;92.05
55263;BME280;41125;48.752;9.168;2023-04-01T02:18:29;95546.72;;;6.84;92.09
55263;BME280;41125;48.752;9.168;2023-04-01T02:19:03;95545.94;;;6.83;92.39
55263;BME280;41125;48.752;9.168;2023-04-01T02:19:47;95551.63;;;6.82;92.03
55263;BME280;41125;48.752;9.168;2023-04-01T02:20:22;95544.13;;;6.79;92.20
55263;BME280;41125;48.752;9.168;2023-04-01T02:20:59;95540.94;;;6.77;92.46
55263;BME280;41125;48.752;9.168;2023-04-01T02:21:32;95547.44;;;6.76;92.61
55263;BME280;41125;48.752;9.168;2023-04-01T02:22:08;95552.31;;;6.73;93.24
55263;BME280;41125;48.752;9.168;2023-04-01T02:22:49;95558.59;;;6.83;92.67
55263;BME280;41125;48.752;9.168;2023-04-01T02:23:21;95547.78;;;6.96;91.56
55263;BME280;41125;48.752;9.168;2023-04-01T02:23:53;95538.00;;;7.00;90.76
55263;BME280;41125;48.752;9.168;2023-04-01T02:24:28;95546.88;;;7.01;90.68
55263;BME280;41125;48.752;9.168;2023-04-01T02:25:06;95554.47;;;6.99;90.44
55263;BME280;41125;48.752;9.168;2023-04-01T02:25:39;95544.28;;;6.96;90.81
55263;BME280;41125;48.752;9.168;2023-04-01T02:26:16;95554.41;;;6.90;90.83
55263;BME280;41125;48.752;9.168;2023-04-01T02:26:50;95556.59;;;6.88;91.54
55263;BME280;41125;48.752;9.168;2023-04-01T02:27:23;95556.41;;;6.85;91.59
55263;BME280;41125;48.752;9.168;2023-04-01T02:27:56;95555.31;;;6.86;91.86
55263;BME280;41125;48.752;9.168;2023-04-01T02:28:29;95554.56;;;6.94;90.91
55263;BME280;41125;48.752;9.168;2023-04-01T02:29:05;95564.37;;;7.03;90.55
55263;BME280;41125;48.752;9.168;2023-04-01T02:29:42;95553.38;;;7.00;89.74
55263;BME280;41125;48.752;9.168;2023-04-01T02:30:15;95557.19;;;6.99;90.27
55263;BME280;41125;48.752;9.168;2023-04-01T02:30:50;95558.56;;;6.96;90.42
55263;BME280;41125;48.752;9.168;2023-04-01T02:31:23;95558.41;;;6.93;90.49
55263;BME280;41125;48.752;9.168;2023-04-01T02:31:55;95553.62;;;6.90;90.32
55263;BME280;41125;48.752;9.168;2023-04-01T02:32:28;95561.50;;;6.86;90.77
55263;BME280;41125;48.752;9.168;2023-04-01T02:33:04;95560.41;;;6.87;90.63
55263;BME280;41125;48.752;9.168;2023-04-01T02:33:38;95562.19;;;6.92;90.15
55263;BME280;41125;48.752;9.168;2023-04-01T02:34:10;95560.59;;;6.91;90.17
55263;BME280;41125;48.752;9.168;2023-04-01T02:34:43;95553.00;;;6.93;90.38
55263;BME280;41125;48.752;9.168;2023-04-01T02:35:16;95551.22;;;6.88;89.91
55263;BME280;41125;48.752;9.168;2023-04-01T02:35:48;95562.81;;;6.89;90.51
55263;BME280;41125;48.752;9.168;2023-04-01T02:36:20;95565.00;;;6.87;90.17
55263;BME280;41125;48.752;9.168;2023-04-01T02:36:52;95573.19;;;6.82;90.26
55263;BME280;41125;48.752;9.168;2023-04-01T02:37:25;95561.19;;;6.88;90.15
55263;BME280;41125;48.752;9.168;2023-04-01T02:37:58;95561.56;;;6.95;89.05
55263;BME280;41125;48.752;9.168;2023-04-01T02:38:30;95550.78;;;6.95;88.94
55263;BME280;41125;48.752;9.168;2023-04-01T02:39:02;95553.78;;;6.93;88.60
55263;BME280;41125;48.752;9.168;2023-04-01T02:39:35;95556.19;;;6.95;89.16
55263;BME280;41125;48.752;9.168;2023-04-01T02:40:08;95554.28;;;6.95;88.92
55263;BME280;41125;48.752;9.168;2023-04-01T02:40:49;95552.38;;;6.96;88.74
55263;BME280;41125;48.752;9.168;2023-04-01T02:41:21;95553.00;;;6.93;88.72
55263;BME280;41125;48.752;9.168;2023-04-01T02:41:53;95563.28;;;6.91;88.48
55263;BME280;41125;48.752;9.168;2023-04-01T02:42:24;95558.41;;;6.93;88.81
55263;BME280;41125;48.752;9.168;2023-04-01T02:42:56;95551.41;;;6.92;88.94
55263;BME280;41125;48.752;9.168;2023-04-01T02:43:27;95546.31;;;6.90;89.08
55263;BME280;41125;48.752;9.168;2023-04-01T02:43:59;95546.12;;;6.87;89.10
55263;BME280;41125;48.752;9.168;2023-04-01T02:44:30;95543.22;;;6.83;89.57
55263;BME280;41125;48.752;9.168;2023-04-01T02:45:02;95554.62;;;6.80;89.48
55263;BME280;41125;48.752;9.168;2023-04-01T02:45:34;95555.31;;;6.86;89.19
55263;BME280;41125;48.752;9.168;2023-04-01T02:46:05;95556.31;;;6.90;89.08
55263;BME280;41125;48.752;9.168;2023-04-01T02:46:38;95553.00;;;6.93;89.16
55263;BME280;41125;48.752;9.168;2023-04-01T02:47:10;95551.41;;;6.92;88.63
55263;BME280;41125;48.752;9.168;2023-04-01T02:47:43;95553.91;;;6.88;88.62
55263;BME280;41125;48.752;9.168;2023-04-01T02:48:15;95546.62;;;6.89;88.31
55263;BME280;41125;48.752;9.168;2023-04-01T02:48:46;95556.81;;;6.92;88.27
55263;BME280;41125;48.752;9.168;2023-04-01T02:49:17;95549.81;;;6.91;88.11
55263;BME280;41125;48.752;9.168;2023-04-01T02:49:48;95562.19;;;6.92;88.21
55263;BME280;41125;48.752;9.168;2023-04-01T02:50:20;95559.00;;;6.90;87.99
55263;BME280;41125;48.752;9.168;2023-04-01T02:50:51;95552.81;;;6.89;87.98
55263;BME280;41125;48.752;9.168;2023-04-01T02:51:22;95554.22;;;6.87;88.28
55263;BME280;41125;48.752;9.168;2023-04-01T02:51:53;95561.19;;;6.88;88.49
55263;BME280;41125;48.752;9.168;2023-04-01T02:52:26;95553.62;;;6.90;88.30
55263;BME280;41125;48.752;9.168;2023-04-01T02:52:57;95552.31;;;6.87;88.23
55263;BME280;41125;48.752;9.168;2023-04-01T02:53:28;95556.91;;;6.87;88.38
55263;BME280;41125;48.752;9.168;2023-04-01T02:54:00;95554.22;;;6.87;88.58
55263;BME280;41125;48.752;9.168;2023-04-01T02:54:31;95550.53;;;6.83;88.50
55263;BME280;41125;48.752;9.168;2023-04-01T02:55:03;95549.03;;;6.77;88.53
55263;BME280;41125;48.752;9.168;2023-04-01T02:55:36;95552.22;;;6.79;88.42
55263;BME280;41125;48.752;9.168;2023-04-01T02:56:07;95545.53;;;6.76;88.58
55263;BME280;41125;48.752;9.168;2023-04-01T02:56:41;95555.81;;;6.74;88.35
55263;BME280;41125;48.752;9.168;2023-04-01T02:57:12;95557.50;;;6.70;88.95
55263;BME280;41125;48.752;9.168;2023-04-01T02:57:43;95556.09;;;6.72;89.50
55263;BME280;41125;48.752;9.168;2023-04-01T02:58:14;95562.59;;;6.71;89.66
55263;BME280;41125;48.752;9.168;2023-04-01T02:58:46;95548.31;;;6.71;89.47
55263;BME280;41125;48.752;9.168;2023-04-01T02:59:18;95557.81;;;6.68;89.93
55263;BME280;41125;48.752;9.168;2023-04-01T02:59:49;95556.41;;;6.71;89.70
55263;BME280;41125;48.752;9.168;2023-04-01T03:00:20;95550.91;;;6.90;88.48
55263;BME280;41125;48.752;9.168;2023-04-01T03:00:52;95554.19;;;7.00;87.62
55263;BME280;41125;48.752;9.168;2023-04-01T03:01:23;95549.56;;;7.01;87.49
55263;BME280;41125;48.752;9.168;2023-04-01T03:01:55;95555.38;;;6.94;87.20
55263;BME280;41125;48.752;9.168;2023-04-01T03:02:27;95549.19;;;6.94;87.75
55263;BME280;41125;48.752;9.168;2023-04-01T03:02:58;95552.22;;;6.92;87.79
55263;BME280;41125;48.752;9.168;2023-04-01T03:03:29;95551.53;;;6.87;87.52
55263;BME280;41125;48.752;9.168;2023-04-01T03:04:01;95552.91;;;6.84;87.78
55263;BME280;41125;48.752;9.168;2023-04-01T03:04:35;95550.81;;;6.81;88.29
55263;BME280;41125;48.752;9.168;2023-04-01T03:05:07;95563.00;;;6.79;87.91
55263;BME280;41125;48.752;9.168;2023-04-01T03:05:38;95552.63;;;6.86;87.54
55263;BME280;41125;48.752;9.168;2023-04-01T03:06:13;95552.72;;;6.81;87.28
55263;BME280;41125;48.752;9.168;2023-04-01T03:06:44;95548.41;;;6.80;87.92
55263;BME280;41125;48.752;9.168;2023-04-01T03:07:16;95549.03;;;6.77;87.87
55263;BME280;41125;48.752;9.168;2023-04-01T03:07:47;95547.72;;;6.74;87.94
55263;BME280;41125;48.752;9.168;2023-04-01T03:08:22;95550.22;;;6.70;88.39
55263;BME280;41125;48.752;9.168;2023-04-01T03:08:53;95550.63;;;6.78;88.23
55263;BME280;41125;48.752;9.168;2023-04-01T03:09:24;95555.41;;;6.81;86.87
55263;BME280;41125;48.752;9.168;2023-04-01T03:09:55;95552.72;;;6.81;87.27
55263;BME280;41125;48.752;9.168;2023-04-01T03:10:27;95548.31;;;6.85;86.88
55263;BME280;41125;48.752;9.168;2023-04-01T03:10:58;95547.81;;;6.83;87.17
55263;BME280;41125;48.752;9.168;2023-04-01T03:11:29;95555.50;;;6.76;87.21
55263;BME280;41125;48.752;9.168;2023-04-01T03:12:02;95549.72;;;6.68;87.59
55263;BME280;41125;48.752;9.168;2023-04-01T03:12:33;95553.00;;;6.65;87.73
55263;BME280;41125;48.752;9.168;2023-04-01T03:13:05;95553.09;;;6.60;88.02
55263;BME280;41125;48.752;9.168;2023-04-01T03:13:40;95551.03;;;6.57;88.29
55263;BME280;41125;48.752;9.168;2023-04-01T03:14:11;95558.03;;;6.58;88.56
55263;BME280;41125;48.752;9.168;2023-04-01T03:14:43;95554.72;;;6.61;88.57
55263;BME280;41125;48.752;9.168;2023-04-01T03:15:17;95552.00;;;6.61;88.56
55263;BME280;41125;48.752;9.168;2023-04-01T03:15:48;95559.59;;;6.59;88.35
55263;BME280;41125;48.752;9.168;2023-04-01T03:16:20;95570.06;;;6.61;88.94
55263;BME280;41125;48.752;9.168;2023-04-01T03:16:51;95554.59;;;6.66;88.31
55263;BME280;41125;48.752;9.168;2023-04-01T03:17:22;95555.31;;;6.72;88.26
55263;BME280;41125;48.752;9.168;2023-04-01T03:17:53;95555.50;;;6.76;87.82
55263;BME280;41125;48.752;9.168;2023-04-01T03:18:25;95564.09;;;6.78;87.83
55263;BME280;41125;48.752;9.168;2023-04-01T03:18:56;95560.41;;;6.73;87.67
55263;BME280;41125;48.752;9.168;2023-04-01T03:19:29;95555.59;;;6.70;87.71
55263;BME280;41125;48.752;9.168;2023-04-01T03:20:04;95563.28;;;6.63;88.11